Yahata Maru — JL6477 — position and weather

sailwx.info

Track history (hours):
 
Tides and Currents Weather Stations Pressure Air Temp Water Temp Dewpoint Dewpoint Depression Visibility Wind Speed Wind Dir Waves Ship Positions

Yahata Maru

Last reported at 2016-May-02 13:10 UTC. Time now 2016-May-05 10:28 UTC.
Position N 34°33' E 134°46'.

Length 149 m; draft 4.7 m.

Type: Other ship. MMSI: 431400594.

Date/timePositionNaut miles runAvg speedWind from/ knotsBaromVisibWave heightAir tempDewpointWater temp
2016-May-02 13:10N 34°33' E 134°46'6 8.8
2016-May-02 12:30N 34°35' E 134°53'8 8.1
2016-May-02 11:33N 34°37' E 135°02'9 8.9
2016-May-02 10:33N 34°36' E 135°12'9 8.7
2016-May-02 09:33N 34°42' E 135°21'1 0.2
2016-May-02 02:32N 34°43' E 135°21'7 6.7
2016-May-02 01:33N 34°37' E 135°21'4 2.8
2016-May-02 00:07N 34°35' E 135°26'0 0.4
2016-May-01 23:33N 34°35' E 135°25'6 6.1
2016-May-01 22:33N 34°35' E 135°18'0 0.0
2016-May-01 21:30N 34°35' E 135°18'0 0.0
2016-May-01 20:24N 34°35' E 135°18'0 0.0
2016-May-01 19:12N 34°35' E 135°18'0 0.0
2016-May-01 18:30N 34°35' E 135°18'0 0.0
2016-May-01 17:30N 34°35' E 135°18'0 0.0
2016-May-01 16:30N 34°35' E 135°18'0 0.0
2016-May-01 15:30N 34°35' E 135°18'0 0.1
2016-May-01 14:30N 34°35' E 135°18'0 0.1
2016-May-01 13:30N 34°35' E 135°18'0 0.0
2016-May-01 12:30N 34°35' E 135°18'0 0.0
2016-May-01 11:30N 34°35' E 135°18'0 0.0
2016-May-01 10:30N 34°35' E 135°18'0 0.0
2016-May-01 09:30N 34°35' E 135°18'0 0.1
2016-May-01 08:30N 34°35' E 135°18'0 0.0
2016-May-01 07:30N 34°35' E 135°18'1 0.6
2016-May-01 05:33N 34°34' E 135°18'9 9.2
2016-May-01 04:33N 34°27' E 135°10'9 9.4
2016-May-01 03:33N 34°20' E 135°02'8 8.3
2016-May-01 02:34N 34°12' E 134°60'9 9.3
2016-May-01 01:33N 34°03' E 135°01'183 5.4
2016-Apr-29 15:31N 34°35' E 138°39'50 8.4
2016-Apr-29 09:33N 35°02' E 139°31'10 9.7
2016-Apr-29 08:32N 35°07' E 139°41'9 9.7
2016-Apr-29 07:33N 35°15' E 139°46'9 9.4
2016-Apr-29 06:33N 35°24' E 139°43'1010.2
2016-Apr-29 05:33N 35°31' E 139°52'5 3.6
2016-Apr-29 04:18N 35°35' E 139°55'0 0.0
2016-Apr-29 03:30N 35°35' E 139°55'0 0.0
2016-Apr-29 02:30N 35°35' E 139°55'0 0.0
2016-Apr-29 01:30N 35°35' E 139°55'0 0.0
2016-Apr-29 00:30N 35°35' E 139°55'0 0.0
2016-Apr-28 23:30N 35°35' E 139°55'0 0.0
2016-Apr-28 22:24N 35°35' E 139°55'0 0.0
2016-Apr-28 21:30N 35°35' E 139°55'0 0.0
2016-Apr-28 20:24N 35°35' E 139°55'0 0.0
2016-Apr-28 19:18N 35°35' E 139°55'0 0.0
2016-Apr-28 18:30N 35°35' E 139°55'0 0.0
2016-Apr-28 17:24N 35°35' E 139°55'0 0.1
2016-Apr-28 16:30N 35°35' E 139°55'0 0.0
2016-Apr-28 15:06N 35°35' E 139°55'0 0.1
2016-Apr-28 14:18N 35°35' E 139°55'0 0.0
2016-Apr-28 13:30N 35°35' E 139°55'0 0.0
2016-Apr-28 12:30N 35°35' E 139°55'0 0.0
2016-Apr-28 11:15N 35°35' E 139°55'0 0.1
2016-Apr-28 10:24N 35°35' E 139°55'0 0.0
2016-Apr-28 09:30N 35°35' E 139°55'0 0.0
2016-Apr-28 08:30N 35°35' E 139°55'0 0.0
2016-Apr-28 07:24N 35°35' E 139°55'0 0.0
2016-Apr-28 06:24N 35°35' E 139°55'0 0.0
2016-Apr-28 05:30N 35°35' E 139°55'0 0.0
2016-Apr-28 04:30N 35°35' E 139°55'0 0.1
2016-Apr-28 03:33N 35°35' E 139°55'0 0.0
2016-Apr-28 02:33N 35°35' E 139°55'0 0.0
2016-Apr-28 01:33N 35°35' E 139°55'0 0.0
2016-Apr-28 00:33N 35°35' E 139°55'0 0.0
2016-Apr-27 23:33N 35°35' E 139°55'0 0.0
2016-Apr-27 22:24N 35°35' E 139°55'0 0.0
2016-Apr-27 21:30N 35°35' E 139°55'0 0.0
2016-Apr-27 20:30N 35°35' E 139°55'0 0.0
2016-Apr-27 19:30N 35°35' E 139°55'0 0.0
2016-Apr-27 18:30N 35°35' E 139°55'0 0.1
2016-Apr-27 17:33N 35°35' E 139°55'1 1.4
2016-Apr-27 16:33N 35°33' E 139°55'9 8.8
2016-Apr-27 15:33N 35°27' E 139°47'4 3.8
2016-Apr-27 14:33N 35°28' E 139°43'0 0.0
2016-Apr-27 13:33N 35°28' E 139°43'0 0.0
2016-Apr-27 12:33N 35°28' E 139°43'2 2.2
2016-Apr-27 11:33N 35°27' E 139°45'7 7.2
2016-Apr-27 10:33N 35°30' E 139°52'8 8.2
2016-Apr-27 09:33N 35°34' E 140°01'5 4.4
2016-Apr-27 08:29N 35°33' E 140°07'0 0.0
2016-Apr-27 07:26N 35°33' E 140°07'0 0.0
2016-Apr-27 06:32N 35°33' E 140°07'0 0.0
2016-Apr-27 03:32N 35°33' E 140°07'0 0.0
2016-Apr-27 02:32N 35°33' E 140°07'0 0.0
2016-Apr-27 01:29N 35°33' E 140°07'0 0.0
2016-Apr-27 00:32N 35°33' E 140°07'0 0.0
2016-Apr-26 23:26N 35°33' E 140°07'0 0.0
2016-Apr-26 22:26N 35°33' E 140°07'0 0.0
2016-Apr-26 21:32N 35°33' E 140°07'0 0.0
2016-Apr-26 20:20N 35°33' E 140°07'0 0.0
2016-Apr-26 19:32N 35°33' E 140°07'0 0.0
2016-Apr-26 18:26N 35°33' E 140°07'0 0.0
2016-Apr-26 17:23N 35°33' E 140°07'0 0.0
2016-Apr-26 16:32N 35°33' E 140°07'0 0.0
2016-Apr-26 15:26N 35°33' E 140°07'0 0.0
2016-Apr-26 14:26N 35°33' E 140°07'0 0.0
2016-Apr-26 13:20N 35°33' E 140°07'0 0.0
2016-Apr-26 12:26N 35°33' E 140°07'0 0.0
2016-Apr-26 11:32N 35°33' E 140°07'0 0.0
2016-Apr-26 10:32N 35°33' E 140°07'0 0.0
2016-Apr-26 09:29N 35°33' E 140°07'0 0.0
2016-Apr-26 08:32N 35°33' E 140°07'0 0.0
2016-Apr-26 07:32N 35°33' E 140°07'0 0.0
2016-Apr-26 06:29N 35°33' E 140°07'0 0.0
2016-Apr-26 05:33N 35°33' E 140°07'4 4.0
2016-Apr-26 04:29N 35°34' E 140°02'0 0.5
2016-Apr-26 03:33N 35°33' E 140°01'9 8.9
2016-Apr-26 02:34N 35°29' E 139°52'9 8.9
2016-Apr-26 01:34N 35°23' E 139°43'4 3.7
2016-Apr-26 00:33N 35°23' E 139°38'0 0.0
2016-Apr-25 23:33N 35°23' E 139°38'0 0.2
2016-Apr-25 22:33N 35°23' E 139°39'5 4.6
2016-Apr-25 21:32N 35°22' E 139°44'0 0.1
2016-Apr-25 20:32N 35°22' E 139°44'0 0.1
2016-Apr-25 19:32N 35°22' E 139°44'0 0.0
2016-Apr-25 18:32N 35°22' E 139°44'0 0.0
2016-Apr-25 17:32N 35°22' E 139°44'0 0.0
2016-Apr-25 16:29N 35°22' E 139°44'0 0.0
2016-Apr-25 15:29N 35°22' E 139°44'0 0.0
2016-Apr-25 14:32N 35°22' E 139°44'0 0.0
2016-Apr-25 13:32N 35°22' E 139°44'3 3.3
2016-Apr-25 12:33N 35°19' E 139°44'8 8.3
2016-Apr-25 11:33N 35°11' E 139°46'  
Track history (hours):
 
Tides and Currents Weather Stations Pressure Air Temp Water Temp Dewpoint Dewpoint Depression Visibility Wind Speed Wind Dir Waves Ship Positions

Yahata Maru

Last reported at 2016-May-02 13:10 UTC. Time now 2016-May-05 10:28 UTC.
Position N 34°33' E 134°46'.

Length 149 m; draft 4.7 m.

Type: Other ship. MMSI: 431400594.

Date/timePositionNaut miles runAvg speedWind from/ knotsBaromVisibWave heightAir tempDewpointWater temp
2016-May-02 13:10N 34°33' E 134°46'6 8.8
2016-May-02 12:30N 34°35' E 134°53'8 8.1
2016-May-02 11:33N 34°37' E 135°02'9 8.9
2016-May-02 10:33N 34°36' E 135°12'9 8.7
2016-May-02 09:33N 34°42' E 135°21'1 0.2
2016-May-02 02:32N 34°43' E 135°21'7 6.7
2016-May-02 01:33N 34°37' E 135°21'4 2.8
2016-May-02 00:07N 34°35' E 135°26'0 0.4
2016-May-01 23:33N 34°35' E 135°25'6 6.1
2016-May-01 22:33N 34°35' E 135°18'0 0.0
2016-May-01 21:30N 34°35' E 135°18'0 0.0
2016-May-01 20:24N 34°35' E 135°18'0 0.0
2016-May-01 19:12N 34°35' E 135°18'0 0.0
2016-May-01 18:30N 34°35' E 135°18'0 0.0
2016-May-01 17:30N 34°35' E 135°18'0 0.0
2016-May-01 16:30N 34°35' E 135°18'0 0.0
2016-May-01 15:30N 34°35' E 135°18'0 0.1
2016-May-01 14:30N 34°35' E 135°18'0 0.1
2016-May-01 13:30N 34°35' E 135°18'0 0.0
2016-May-01 12:30N 34°35' E 135°18'0 0.0
2016-May-01 11:30N 34°35' E 135°18'0 0.0
2016-May-01 10:30N 34°35' E 135°18'0 0.0
2016-May-01 09:30N 34°35' E 135°18'0 0.1
2016-May-01 08:30N 34°35' E 135°18'0 0.0
2016-May-01 07:30N 34°35' E 135°18'1 0.6
2016-May-01 05:33N 34°34' E 135°18'9 9.2
2016-May-01 04:33N 34°27' E 135°10'9 9.4
2016-May-01 03:33N 34°20' E 135°02'8 8.3
2016-May-01 02:34N 34°12' E 134°60'9 9.3
2016-May-01 01:33N 34°03' E 135°01'183 5.4
2016-Apr-29 15:31N 34°35' E 138°39'50 8.4
2016-Apr-29 09:33N 35°02' E 139°31'10 9.7
2016-Apr-29 08:32N 35°07' E 139°41'9 9.7
2016-Apr-29 07:33N 35°15' E 139°46'9 9.4
2016-Apr-29 06:33N 35°24' E 139°43'1010.2
2016-Apr-29 05:33N 35°31' E 139°52'5 3.6
2016-Apr-29 04:18N 35°35' E 139°55'0 0.0
2016-Apr-29 03:30N 35°35' E 139°55'0 0.0
2016-Apr-29 02:30N 35°35' E 139°55'0 0.0
2016-Apr-29 01:30N 35°35' E 139°55'0 0.0
2016-Apr-29 00:30N 35°35' E 139°55'0 0.0
2016-Apr-28 23:30N 35°35' E 139°55'0 0.0
2016-Apr-28 22:24N 35°35' E 139°55'0 0.0
2016-Apr-28 21:30N 35°35' E 139°55'0 0.0
2016-Apr-28 20:24N 35°35' E 139°55'0 0.0
2016-Apr-28 19:18N 35°35' E 139°55'0 0.0
2016-Apr-28 18:30N 35°35' E 139°55'0 0.0
2016-Apr-28 17:24N 35°35' E 139°55'0 0.1
2016-Apr-28 16:30N 35°35' E 139°55'0 0.0
2016-Apr-28 15:06N 35°35' E 139°55'0 0.1
2016-Apr-28 14:18N 35°35' E 139°55'0 0.0
2016-Apr-28 13:30N 35°35' E 139°55'0 0.0
2016-Apr-28 12:30N 35°35' E 139°55'0 0.0
2016-Apr-28 11:15N 35°35' E 139°55'0 0.1
2016-Apr-28 10:24N 35°35' E 139°55'0 0.0
2016-Apr-28 09:30N 35°35' E 139°55'0 0.0
2016-Apr-28 08:30N 35°35' E 139°55'0 0.0
2016-Apr-28 07:24N 35°35' E 139°55'0 0.0
2016-Apr-28 06:24N 35°35' E 139°55'0 0.0
2016-Apr-28 05:30N 35°35' E 139°55'0 0.0
2016-Apr-28 04:30N 35°35' E 139°55'0 0.1
2016-Apr-28 03:33N 35°35' E 139°55'0 0.0
2016-Apr-28 02:33N 35°35' E 139°55'0 0.0
2016-Apr-28 01:33N 35°35' E 139°55'0 0.0
2016-Apr-28 00:33N 35°35' E 139°55'0 0.0
2016-Apr-27 23:33N 35°35' E 139°55'0 0.0
2016-Apr-27 22:24N 35°35' E 139°55'0 0.0
2016-Apr-27 21:30N 35°35' E 139°55'0 0.0
2016-Apr-27 20:30N 35°35' E 139°55'0 0.0
2016-Apr-27 19:30N 35°35' E 139°55'0 0.0
2016-Apr-27 18:30N 35°35' E 139°55'0 0.1
2016-Apr-27 17:33N 35°35' E 139°55'1 1.4
2016-Apr-27 16:33N 35°33' E 139°55'9 8.8
2016-Apr-27 15:33N 35°27' E 139°47'4 3.8
2016-Apr-27 14:33N 35°28' E 139°43'0 0.0
2016-Apr-27 13:33N 35°28' E 139°43'0 0.0
2016-Apr-27 12:33N 35°28' E 139°43'2 2.2
2016-Apr-27 11:33N 35°27' E 139°45'7 7.2
2016-Apr-27 10:33N 35°30' E 139°52'8 8.2
2016-Apr-27 09:33N 35°34' E 140°01'5 4.4
2016-Apr-27 08:29N 35°33' E 140°07'0 0.0
2016-Apr-27 07:26N 35°33' E 140°07'0 0.0
2016-Apr-27 06:32N 35°33' E 140°07'0 0.0
2016-Apr-27 03:32N 35°33' E 140°07'0 0.0
2016-Apr-27 02:32N 35°33' E 140°07'0 0.0
2016-Apr-27 01:29N 35°33' E 140°07'0 0.0
2016-Apr-27 00:32N 35°33' E 140°07'0 0.0
2016-Apr-26 23:26N 35°33' E 140°07'0 0.0
2016-Apr-26 22:26N 35°33' E 140°07'0 0.0
2016-Apr-26 21:32N 35°33' E 140°07'0 0.0
2016-Apr-26 20:20N 35°33' E 140°07'0 0.0
2016-Apr-26 19:32N 35°33' E 140°07'0 0.0
2016-Apr-26 18:26N 35°33' E 140°07'0 0.0
2016-Apr-26 17:23N 35°33' E 140°07'0 0.0
2016-Apr-26 16:32N 35°33' E 140°07'0 0.0
2016-Apr-26 15:26N 35°33' E 140°07'0 0.0
2016-Apr-26 14:26N 35°33' E 140°07'0 0.0
2016-Apr-26 13:20N 35°33' E 140°07'0 0.0
2016-Apr-26 12:26N 35°33' E 140°07'0 0.0
2016-Apr-26 11:32N 35°33' E 140°07'0 0.0
2016-Apr-26 10:32N 35°33' E 140°07'0 0.0
2016-Apr-26 09:29N 35°33' E 140°07'0 0.0
2016-Apr-26 08:32N 35°33' E 140°07'0 0.0
2016-Apr-26 07:32N 35°33' E 140°07'0 0.0
2016-Apr-26 06:29N 35°33' E 140°07'0 0.0
2016-Apr-26 05:33N 35°33' E 140°07'4 4.0
2016-Apr-26 04:29N 35°34' E 140°02'0 0.5
2016-Apr-26 03:33N 35°33' E 140°01'9 8.9
2016-Apr-26 02:34N 35°29' E 139°52'9 8.9
2016-Apr-26 01:34N 35°23' E 139°43'4 3.7
2016-Apr-26 00:33N 35°23' E 139°38'0 0.0
2016-Apr-25 23:33N 35°23' E 139°38'0 0.2
2016-Apr-25 22:33N 35°23' E 139°39'5 4.6
2016-Apr-25 21:32N 35°22' E 139°44'0 0.1
2016-Apr-25 20:32N 35°22' E 139°44'0 0.1
2016-Apr-25 19:32N 35°22' E 139°44'0 0.0
2016-Apr-25 18:32N 35°22' E 139°44'0 0.0
2016-Apr-25 17:32N 35°22' E 139°44'0 0.0
2016-Apr-25 16:29N 35°22' E 139°44'0 0.0
2016-Apr-25 15:29N 35°22' E 139°44'0 0.0
2016-Apr-25 14:32N 35°22' E 139°44'0 0.0
2016-Apr-25 13:32N 35°22' E 139°44'3 3.3
2016-Apr-25 12:33N 35°19' E 139°44'8 8.3
2016-Apr-25 11:33N 35°11' E 139°46'  

Dump ship's entire track history